sensor_id;sensor_type;location;lat;lon;timestamp;P1;durP1;ratioP1;P2;durP2;ratioP2
57325;SDS011;43161;50.950;18.224;2023-11-19T00:00:16;91.70;;;35.10;;
57325;SDS011;43161;50.950;18.224;2023-11-19T00:02:42;109.90;;;37.60;;
57325;SDS011;43161;50.950;18.224;2023-11-19T00:05:09;125.10;;;40.60;;
57325;SDS011;43161;50.950;18.224;2023-11-19T00:07:37;123.80;;;42.60;;
57325;SDS011;43161;50.950;18.224;2023-11-19T00:10:09;155.20;;;45.00;;
57325;SDS011;43161;50.950;18.224;2023-11-19T00:12:42;151.80;;;49.00;;
57325;SDS011;43161;50.950;18.224;2023-11-19T00:15:09;81.50;;;29.70;;
57325;SDS011;43161;50.950;18.224;2023-11-19T00:17:38;64.70;;;24.20;;
57325;SDS011;43161;50.950;18.224;2023-11-19T00:20:13;60.40;;;23.60;;
57325;SDS011;43161;50.950;18.224;2023-11-19T00:22:40;60.20;;;22.80;;
57325;SDS011;43161;50.950;18.224;2023-11-19T00:25:07;61.20;;;24.70;;
57325;SDS011;43161;50.950;18.224;2023-11-19T00:27:34;60.70;;;24.10;;
57325;SDS011;43161;50.950;18.224;2023-11-19T00:29:59;59.00;;;24.00;;
57325;SDS011;43161;50.950;18.224;2023-11-19T00:32:25;61.10;;;25.40;;
57325;SDS011;43161;50.950;18.224;2023-11-19T00:34:51;62.10;;;24.70;;
57325;SDS011;43161;50.950;18.224;2023-11-19T00:37:17;60.30;;;26.00;;
57325;SDS011;43161;50.950;18.224;2023-11-19T00:39:42;56.00;;;23.50;;
57325;SDS011;43161;50.950;18.224;2023-11-19T00:42:09;56.80;;;23.50;;
57325;SDS011;43161;50.950;18.224;2023-11-19T00:44:39;60.80;;;24.10;;
57325;SDS011;43161;50.950;18.224;2023-11-19T00:47:06;58.00;;;22.20;;
57325;SDS011;43161;50.950;18.224;2023-11-19T00:49:31;53.70;;;21.10;;
57325;SDS011;43161;50.950;18.224;2023-11-19T00:51:58;50.70;;;21.40;;
57325;SDS011;43161;50.950;18.224;2023-11-19T00:54:24;133.30;;;42.70;;
57325;SDS011;43161;50.950;18.224;2023-11-19T00:56:54;166.20;;;49.90;;
57325;SDS011;43161;50.950;18.224;2023-11-19T00:59:20;98.70;;;35.30;;
57325;SDS011;43161;50.950;18.224;2023-11-19T01:01:46;65.70;;;26.20;;
57325;SDS011;43161;50.950;18.224;2023-11-19T01:04:13;70.70;;;28.20;;
57325;SDS011;43161;50.950;18.224;2023-11-19T01:06:40;111.60;;;39.70;;
57325;SDS011;43161;50.950;18.224;2023-11-19T01:09:08;102.60;;;36.70;;
57325;SDS011;43161;50.950;18.224;2023-11-19T01:11:34;78.60;;;30.10;;
57325;SDS011;43161;50.950;18.224;2023-11-19T01:14:00;81.80;;;30.20;;
57325;SDS011;43161;50.950;18.224;2023-11-19T01:16:26;81.00;;;34.00;;
57325;SDS011;43161;50.950;18.224;2023-11-19T01:18:52;94.40;;;36.00;;
57325;SDS011;43161;50.950;18.224;2023-11-19T01:21:18;86.00;;;34.20;;
57325;SDS011;43161;50.950;18.224;2023-11-19T01:23:44;71.80;;;27.40;;
57325;SDS011;43161;50.950;18.224;2023-11-19T01:26:10;109.50;;;37.50;;
57325;SDS011;43161;50.950;18.224;2023-11-19T01:28:38;92.00;;;33.60;;
57325;SDS011;43161;50.950;18.224;2023-11-19T01:31:14;112.00;;;36.20;;
57325;SDS011;43161;50.950;18.224;2023-11-19T01:33:41;78.80;;;31.40;;
57325;SDS011;43161;50.950;18.224;2023-11-19T01:36:07;101.90;;;35.30;;
57325;SDS011;43161;50.950;18.224;2023-11-19T01:38:36;112.70;;;38.10;;
57325;SDS011;43161;50.950;18.224;2023-11-19T01:41:02;93.50;;;37.70;;
57325;SDS011;43161;50.950;18.224;2023-11-19T01:43:46;98.10;;;38.80;;
57325;SDS011;43161;50.950;18.224;2023-11-19T01:46:12;73.50;;;33.60;;
57325;SDS011;43161;50.950;18.224;2023-11-19T01:48:45;75.70;;;28.50;;
57325;SDS011;43161;50.950;18.224;2023-11-19T01:51:12;82.10;;;32.70;;
57325;SDS011;43161;50.950;18.224;2023-11-19T01:53:38;107.30;;;47.80;;
57325;SDS011;43161;50.950;18.224;2023-11-19T01:56:05;104.20;;;49.30;;
57325;SDS011;43161;50.950;18.224;2023-11-19T01:58:36;69.10;;;32.50;;
57325;SDS011;43161;50.950;18.224;2023-11-19T02:01:02;71.50;;;31.10;;
57325;SDS011;43161;50.950;18.224;2023-11-19T02:03:30;56.60;;;24.40;;
57325;SDS011;43161;50.950;18.224;2023-11-19T02:05:58;88.30;;;35.60;;
57325;SDS011;43161;50.950;18.224;2023-11-19T02:08:25;75.30;;;33.70;;
57325;SDS011;43161;50.950;18.224;2023-11-19T02:10:51;71.90;;;29.00;;
57325;SDS011;43161;50.950;18.224;2023-11-19T02:13:18;59.50;;;25.40;;
57325;SDS011;43161;50.950;18.224;2023-11-19T02:15:44;55.90;;;22.70;;
57325;SDS011;43161;50.950;18.224;2023-11-19T02:20:58;61.10;;;25.20;;
57325;SDS011;43161;50.950;18.224;2023-11-19T02:23:27;58.70;;;25.00;;
57325;SDS011;43161;50.950;18.224;2023-11-19T02:29:02;55.60;;;22.40;;
57325;SDS011;43161;50.950;18.224;2023-11-19T02:31:28;54.70;;;24.30;;
57325;SDS011;43161;50.950;18.224;2023-11-19T02:33:54;59.80;;;26.60;;
57325;SDS011;43161;50.950;18.224;2023-11-19T02:36:20;56.00;;;24.80;;
57325;SDS011;43161;50.950;18.224;2023-11-19T02:38:46;54.50;;;24.20;;
57325;SDS011;43161;50.950;18.224;2023-11-19T02:41:13;59.70;;;25.70;;
57325;SDS011;43161;50.950;18.224;2023-11-19T02:43:39;55.10;;;26.10;;
57325;SDS011;43161;50.950;18.224;2023-11-19T02:46:05;59.90;;;27.10;;
57325;SDS011;43161;50.950;18.224;2023-11-19T02:48:34;65.10;;;28.70;;
57325;SDS011;43161;50.950;18.224;2023-11-19T02:51:03;66.30;;;29.30;;
57325;SDS011;43161;50.950;18.224;2023-11-19T02:53:30;64.50;;;30.80;;
57325;SDS011;43161;50.950;18.224;2023-11-19T02:55:57;57.30;;;26.60;;
57325;SDS011;43161;50.950;18.224;2023-11-19T02:58:37;60.80;;;28.10;;
57325;SDS011;43161;50.950;18.224;2023-11-19T03:01:04;60.70;;;29.40;;
57325;SDS011;43161;50.950;18.224;2023-11-19T03:03:48;58.60;;;29.20;;
57325;SDS011;43161;50.950;18.224;2023-11-19T03:06:19;63.70;;;29.70;;
57325;SDS011;43161;50.950;18.224;2023-11-19T03:08:47;55.10;;;27.50;;
57325;SDS011;43161;50.950;18.224;2023-11-19T03:11:13;56.00;;;26.90;;
57325;SDS011;43161;50.950;18.224;2023-11-19T03:13:39;59.10;;;27.70;;
57325;SDS011;43161;50.950;18.224;2023-11-19T03:16:05;63.30;;;30.30;;
57325;SDS011;43161;50.950;18.224;2023-11-19T03:18:31;53.70;;;25.70;;
57325;SDS011;43161;50.950;18.224;2023-11-19T03:20:58;59.10;;;25.70;;
57325;SDS011;43161;50.950;18.224;2023-11-19T03:23:24;57.00;;;25.50;;
57325;SDS011;43161;50.950;18.224;2023-11-19T03:25:53;53.80;;;25.20;;
57325;SDS011;43161;50.950;18.224;2023-11-19T03:28:19;56.70;;;25.30;;
57325;SDS011;43161;50.950;18.224;2023-11-19T03:30:45;53.30;;;24.80;;
57325;SDS011;43161;50.950;18.224;2023-11-19T03:33:11;54.00;;;24.30;;
57325;SDS011;43161;50.950;18.224;2023-11-19T03:35:37;56.30;;;22.80;;
57325;SDS011;43161;50.950;18.224;2023-11-19T03:38:03;53.30;;;22.30;;
57325;SDS011;43161;50.950;18.224;2023-11-19T03:40:28;51.20;;;22.50;;
57325;SDS011;43161;50.950;18.224;2023-11-19T03:42:57;51.70;;;22.00;;
57325;SDS011;43161;50.950;18.224;2023-11-19T03:45:24;52.80;;;24.30;;
57325;SDS011;43161;50.950;18.224;2023-11-19T03:47:50;51.40;;;25.50;;
57325;SDS011;43161;50.950;18.224;2023-11-19T03:52:43;51.60;;;23.00;;
57325;SDS011;43161;50.950;18.224;2023-11-19T03:55:09;48.30;;;22.50;;
57325;SDS011;43161;50.950;18.224;2023-11-19T03:57:34;52.60;;;25.90;;
57325;SDS011;43161;50.950;18.224;2023-11-19T04:00:01;50.80;;;24.10;;
57325;SDS011;43161;50.950;18.224;2023-11-19T04:02:34;49.90;;;23.50;;
57325;SDS011;43161;50.950;18.224;2023-11-19T04:05:00;51.30;;;24.40;;
57325;SDS011;43161;50.950;18.224;2023-11-19T04:07:25;49.50;;;21.70;;
57325;SDS011;43161;50.950;18.224;2023-11-19T04:09:51;53.30;;;25.20;;
57325;SDS011;43161;50.950;18.224;2023-11-19T04:12:17;51.50;;;22.60;;
57325;SDS011;43161;50.950;18.224;2023-11-19T04:14:43;51.40;;;24.50;;
57325;SDS011;43161;50.950;18.224;2023-11-19T04:17:09;49.60;;;23.20;;
57325;SDS011;43161;50.950;18.224;2023-11-19T04:19:35;53.10;;;23.00;;
57325;SDS011;43161;50.950;18.224;2023-11-19T04:22:01;53.50;;;25.60;;
57325;SDS011;43161;50.950;18.224;2023-11-19T04:24:27;46.70;;;20.50;;
57325;SDS011;43161;50.950;18.224;2023-11-19T04:26:53;51.40;;;25.30;;
57325;SDS011;43161;50.950;18.224;2023-11-19T04:29:19;52.20;;;24.00;;
57325;SDS011;43161;50.950;18.224;2023-11-19T04:31:44;52.20;;;23.10;;
57325;SDS011;43161;50.950;18.224;2023-11-19T04:34:11;51.50;;;25.30;;
57325;SDS011;43161;50.950;18.224;2023-11-19T04:36:37;50.90;;;21.70;;
57325;SDS011;43161;50.950;18.224;2023-11-19T04:39:04;50.80;;;26.50;;
57325;SDS011;43161;50.950;18.224;2023-11-19T04:41:49;53.30;;;24.10;;
57325;SDS011;43161;50.950;18.224;2023-11-19T04:44:17;52.60;;;26.30;;
57325;SDS011;43161;50.950;18.224;2023-11-19T04:46:43;49.40;;;22.60;;
57325;SDS011;43161;50.950;18.224;2023-11-19T04:49:10;52.30;;;22.80;;
57325;SDS011;43161;50.950;18.224;2023-11-19T04:51:42;54.60;;;25.20;;
57325;SDS011;43161;50.950;18.224;2023-11-19T04:54:09;53.00;;;25.70;;
57325;SDS011;43161;50.950;18.224;2023-11-19T04:56:36;54.90;;;25.80;;
57325;SDS011;43161;50.950;18.224;2023-11-19T04:59:05;49.70;;;22.40;;
57325;SDS011;43161;50.950;18.224;2023-11-19T05:01:31;52.90;;;24.80;;
57325;SDS011;43161;50.950;18.224;2023-11-19T05:03:58;52.60;;;28.40;;
57325;SDS011;43161;50.950;18.224;2023-11-19T05:06:30;54.90;;;25.00;;
57325;SDS011;43161;50.950;18.224;2023-11-19T05:08:58;55.00;;;25.70;;
57325;SDS011;43161;50.950;18.224;2023-11-19T05:11:26;57.20;;;24.80;;
57325;SDS011;43161;50.950;18.224;2023-11-19T05:13:53;60.30;;;26.20;;
57325;SDS011;43161;50.950;18.224;2023-11-19T05:16:19;57.40;;;28.40;;
57325;SDS011;43161;50.950;18.224;2023-11-19T05:18:46;55.90;;;26.40;;
57325;SDS011;43161;50.950;18.224;2023-11-19T05:21:12;53.70;;;26.40;;
57325;SDS011;43161;50.950;18.224;2023-11-19T05:23:38;53.50;;;24.60;;
57325;SDS011;43161;50.950;18.224;2023-11-19T05:26:04;56.00;;;26.10;;
57325;SDS011;43161;50.950;18.224;2023-11-19T05:28:30;57.40;;;26.00;;
57325;SDS011;43161;50.950;18.224;2023-11-19T05:30:56;59.20;;;25.10;;
57325;SDS011;43161;50.950;18.224;2023-11-19T05:33:22;53.90;;;24.60;;
57325;SDS011;43161;50.950;18.224;2023-11-19T05:35:48;51.70;;;22.60;;
57325;SDS011;43161;50.950;18.224;2023-11-19T05:38:14;52.20;;;22.20;;
57325;SDS011;43161;50.950;18.224;2023-11-19T05:40:40;51.30;;;22.30;;
57325;SDS011;43161;50.950;18.224;2023-11-19T05:43:06;53.60;;;25.70;;
57325;SDS011;43161;50.950;18.224;2023-11-19T05:45:32;55.30;;;24.70;;
57325;SDS011;43161;50.950;18.224;2023-11-19T05:47:58;54.20;;;23.00;;
57325;SDS011;43161;50.950;18.224;2023-11-19T05:50:24;52.40;;;24.30;;
57325;SDS011;43161;50.950;18.224;2023-11-19T05:52:50;51.20;;;22.40;;
57325;SDS011;43161;50.950;18.224;2023-11-19T05:55:15;53.20;;;25.50;;
57325;SDS011;43161;50.950;18.224;2023-11-19T05:57:41;50.90;;;24.40;;
57325;SDS011;43161;50.950;18.224;2023-11-19T06:00:07;52.40;;;24.70;;
57325;SDS011;43161;50.950;18.224;2023-11-19T06:02:35;49.40;;;21.30;;
57325;SDS011;43161;50.950;18.224;2023-11-19T06:05:03;49.10;;;24.40;;
57325;SDS011;43161;50.950;18.224;2023-11-19T06:07:31;49.50;;;24.10;;
57325;SDS011;43161;50.950;18.224;2023-11-19T06:09:58;53.00;;;25.30;;
57325;SDS011;43161;50.950;18.224;2023-11-19T06:12:23;93.30;;;52.20;;
57325;SDS011;43161;50.950;18.224;2023-11-19T06:14:49;81.40;;;41.60;;
57325;SDS011;43161;50.950;18.224;2023-11-19T06:17:14;53.20;;;27.30;;
57325;SDS011;43161;50.950;18.224;2023-11-19T06:19:40;54.10;;;26.20;;
57325;SDS011;43161;50.950;18.224;2023-11-19T06:22:06;52.00;;;25.20;;
57325;SDS011;43161;50.950;18.224;2023-11-19T06:24:32;55.00;;;29.30;;
57325;SDS011;43161;50.950;18.224;2023-11-19T06:26:57;56.10;;;27.90;;
57325;SDS011;43161;50.950;18.224;2023-11-19T06:29:23;56.30;;;27.40;;
57325;SDS011;43161;50.950;18.224;2023-11-19T06:31:50;49.30;;;25.40;;
57325;SDS011;43161;50.950;18.224;2023-11-19T06:34:15;52.00;;;21.90;;
57325;SDS011;43161;50.950;18.224;2023-11-19T06:36:41;53.10;;;24.80;;
57325;SDS011;43161;50.950;18.224;2023-11-19T06:39:09;69.00;;;33.10;;
57325;SDS011;43161;50.950;18.224;2023-11-19T06:41:36;74.00;;;34.00;;
57325;SDS011;43161;50.950;18.224;2023-11-19T06:44:04;57.90;;;27.90;;
57325;SDS011;43161;50.950;18.224;2023-11-19T06:46:30;58.60;;;27.20;;
57325;SDS011;43161;50.950;18.224;2023-11-19T06:48:56;52.80;;;25.30;;
57325;SDS011;43161;50.950;18.224;2023-11-19T06:51:22;50.00;;;24.80;;
57325;SDS011;43161;50.950;18.224;2023-11-19T06:53:49;54.80;;;24.90;;
57325;SDS011;43161;50.950;18.224;2023-11-19T06:56:21;53.10;;;26.00;;
57325;SDS011;43161;50.950;18.224;2023-11-19T06:58:48;51.70;;;26.50;;
57325;SDS011;43161;50.950;18.224;2023-11-19T07:01:14;52.40;;;24.80;;
57325;SDS011;43161;50.950;18.224;2023-11-19T07:03:41;49.60;;;22.80;;
57325;SDS011;43161;50.950;18.224;2023-11-19T07:06:07;51.10;;;23.30;;
57325;SDS011;43161;50.950;18.224;2023-11-19T07:08:33;49.00;;;23.50;;
57325;SDS011;43161;50.950;18.224;2023-11-19T07:10:59;46.00;;;22.30;;
57325;SDS011;43161;50.950;18.224;2023-11-19T07:13:25;47.80;;;24.90;;
57325;SDS011;43161;50.950;18.224;2023-11-19T07:15:53;52.60;;;26.10;;
57325;SDS011;43161;50.950;18.224;2023-11-19T07:18:21;52.80;;;25.40;;
57325;SDS011;43161;50.950;18.224;2023-11-19T07:20:47;49.60;;;23.50;;
57325;SDS011;43161;50.950;18.224;2023-11-19T07:23:13;47.10;;;24.80;;
57325;SDS011;43161;50.950;18.224;2023-11-19T07:25:42;48.90;;;27.20;;
57325;SDS011;43161;50.950;18.224;2023-11-19T07:28:08;49.50;;;25.90;;
57325;SDS011;43161;50.950;18.224;2023-11-19T07:30:35;45.90;;;22.90;;
57325;SDS011;43161;50.950;18.224;2023-11-19T07:33:01;47.80;;;21.90;;
57325;SDS011;43161;50.950;18.224;2023-11-19T07:35:29;47.70;;;22.00;;
57325;SDS011;43161;50.950;18.224;2023-11-19T07:37:58;50.20;;;23.00;;
57325;SDS011;43161;50.950;18.224;2023-11-19T07:40:24;49.40;;;22.80;;
57325;SDS011;43161;50.950;18.224;2023-11-19T07:42:50;52.50;;;28.00;;
57325;SDS011;43161;50.950;18.224;2023-11-19T07:45:16;48.40;;;24.20;;
57325;SDS011;43161;50.950;18.224;2023-11-19T07:47:42;50.30;;;26.80;;
57325;SDS011;43161;50.950;18.224;2023-11-19T07:50:11;52.90;;;28.50;;
57325;SDS011;43161;50.950;18.224;2023-11-19T07:52:39;54.30;;;27.90;;
57325;SDS011;43161;50.950;18.224;2023-11-19T07:55:05;53.10;;;27.80;;
57325;SDS011;43161;50.950;18.224;2023-11-19T07:57:31;53.70;;;28.50;;
57325;SDS011;43161;50.950;18.224;2023-11-19T07:59:57;50.80;;;28.50;;
57325;SDS011;43161;50.950;18.224;2023-11-19T08:02:23;48.50;;;25.50;;
57325;SDS011;43161;50.950;18.224;2023-11-19T08:04:49;51.80;;;27.70;;
57325;SDS011;43161;50.950;18.224;2023-11-19T08:07:19;47.30;;;26.00;;
57325;SDS011;43161;50.950;18.224;2023-11-19T08:09:46;46.30;;;26.10;;
57325;SDS011;43161;50.950;18.224;2023-11-19T08:12:12;45.40;;;25.30;;
57325;SDS011;43161;50.950;18.224;2023-11-19T08:14:41;47.00;;;25.10;;
57325;SDS011;43161;50.950;18.224;2023-11-19T08:17:07;46.20;;;23.00;;
57325;SDS011;43161;50.950;18.224;2023-11-19T08:19:33;52.30;;;25.10;;
57325;SDS011;43161;50.950;18.224;2023-11-19T08:21:59;54.50;;;28.10;;
57325;SDS011;43161;50.950;18.224;2023-11-19T08:24:24;54.20;;;29.00;;
57325;SDS011;43161;50.950;18.224;2023-11-19T08:26:50;52.40;;;25.70;;
57325;SDS011;43161;50.950;18.224;2023-11-19T08:29:16;50.80;;;25.80;;
57325;SDS011;43161;50.950;18.224;2023-11-19T08:31:42;49.00;;;26.30;;
57325;SDS011;43161;50.950;18.224;2023-11-19T08:34:07;49.50;;;24.90;;
57325;SDS011;43161;50.950;18.224;2023-11-19T08:36:34;47.80;;;23.70;;
57325;SDS011;43161;50.950;18.224;2023-11-19T08:39:00;48.70;;;25.80;;
57325;SDS011;43161;50.950;18.224;2023-11-19T08:41:26;45.20;;;22.50;;
57325;SDS011;43161;50.950;18.224;2023-11-19T08:43:52;46.50;;;22.20;;
57325;SDS011;43161;50.950;18.224;2023-11-19T08:46:18;47.60;;;25.70;;
57325;SDS011;43161;50.950;18.224;2023-11-19T08:48:44;47.80;;;24.60;;
57325;SDS011;43161;50.950;18.224;2023-11-19T08:51:12;43.10;;;24.30;;
57325;SDS011;43161;50.950;18.224;2023-11-19T08:53:38;42.90;;;25.90;;
57325;SDS011;43161;50.950;18.224;2023-11-19T08:56:03;42.60;;;21.80;;
57325;SDS011;43161;50.950;18.224;2023-11-19T08:58:30;39.10;;;20.00;;
57325;SDS011;43161;50.950;18.224;2023-11-19T09:00:56;39.00;;;19.80;;
57325;SDS011;43161;50.950;18.224;2023-11-19T09:03:23;38.60;;;21.50;;
57325;SDS011;43161;50.950;18.224;2023-11-19T09:05:49;38.80;;;20.60;;
57325;SDS011;43161;50.950;18.224;2023-11-19T09:08:15;42.90;;;23.80;;
57325;SDS011;43161;50.950;18.224;2023-11-19T09:10:40;43.90;;;23.10;;
57325;SDS011;43161;50.950;18.224;2023-11-19T09:13:06;41.50;;;21.70;;
57325;SDS011;43161;50.950;18.224;2023-11-19T09:15:33;39.30;;;22.50;;
57325;SDS011;43161;50.950;18.224;2023-11-19T09:17:58;44.00;;;23.20;;
57325;SDS011;43161;50.950;18.224;2023-11-19T09:20:24;42.50;;;21.80;;
57325;SDS011;43161;50.950;18.224;2023-11-19T09:22:50;42.50;;;22.60;;
57325;SDS011;43161;50.950;18.224;2023-11-19T09:25:17;40.60;;;23.90;;
57325;SDS011;43161;50.950;18.224;2023-11-19T09:27:43;41.70;;;22.80;;
57325;SDS011;43161;50.950;18.224;2023-11-19T09:30:09;41.50;;;22.60;;
57325;SDS011;43161;50.950;18.224;2023-11-19T09:32:35;45.40;;;21.50;;
57325;SDS011;43161;50.950;18.224;2023-11-19T09:35:03;46.20;;;23.50;;
57325;SDS011;43161;50.950;18.224;2023-11-19T09:37:29;40.40;;;20.60;;
57325;SDS011;43161;50.950;18.224;2023-11-19T09:39:55;41.90;;;21.50;;
57325;SDS011;43161;50.950;18.224;2023-11-19T09:42:20;41.80;;;21.30;;
57325;SDS011;43161;50.950;18.224;2023-11-19T09:44:47;43.00;;;22.10;;
57325;SDS011;43161;50.950;18.224;2023-11-19T09:47:13;47.30;;;23.30;;
57325;SDS011;43161;50.950;18.224;2023-11-19T09:49:39;50.70;;;25.80;;
57325;SDS011;43161;50.950;18.224;2023-11-19T09:52:05;64.30;;;30.30;;
57325;SDS011;43161;50.950;18.224;2023-11-19T09:54:31;60.10;;;29.40;;
57325;SDS011;43161;50.950;18.224;2023-11-19T09:56:57;80.50;;;30.60;;
57325;SDS011;43161;50.950;18.224;2023-11-19T09:59:29;85.80;;;34.00;;
57325;SDS011;43161;50.950;18.224;2023-11-19T10:01:55;80.60;;;32.00;;
57325;SDS011;43161;50.950;18.224;2023-11-19T10:04:22;55.90;;;25.50;;
57325;SDS011;43161;50.950;18.224;2023-11-19T10:06:49;49.70;;;23.50;;
57325;SDS011;43161;50.950;18.224;2023-11-19T10:09:15;49.90;;;22.70;;
57325;SDS011;43161;50.950;18.224;2023-11-19T10:11:41;50.80;;;25.30;;
57325;SDS011;43161;50.950;18.224;2023-11-19T10:14:06;53.80;;;26.90;;
57325;SDS011;43161;50.950;18.224;2023-11-19T10:16:34;48.50;;;22.70;;
57325;SDS011;43161;50.950;18.224;2023-11-19T10:19:00;49.60;;;21.10;;
57325;SDS011;43161;50.950;18.224;2023-11-19T10:21:26;52.50;;;22.90;;
57325;SDS011;43161;50.950;18.224;2023-11-19T10:23:53;50.50;;;23.20;;
57325;SDS011;43161;50.950;18.224;2023-11-19T10:26:22;47.90;;;21.50;;
57325;SDS011;43161;50.950;18.224;2023-11-19T10:28:48;49.60;;;22.40;;
57325;SDS011;43161;50.950;18.224;2023-11-19T10:31:15;48.10;;;21.70;;
57325;SDS011;43161;50.950;18.224;2023-11-19T10:33:42;56.30;;;25.60;;
57325;SDS011;43161;50.950;18.224;2023-11-19T10:36:10;55.50;;;25.00;;
57325;SDS011;43161;50.950;18.224;2023-11-19T10:38:40;52.50;;;26.90;;
57325;SDS011;43161;50.950;18.224;2023-11-19T10:41:06;59.60;;;27.80;;
57325;SDS011;43161;50.950;18.224;2023-11-19T10:46:14;58.70;;;26.70;;
57325;SDS011;43161;50.950;18.224;2023-11-19T10:48:46;49.70;;;23.10;;
57325;SDS011;43161;50.950;18.224;2023-11-19T10:51:11;49.30;;;23.10;;
57325;SDS011;43161;50.950;18.224;2023-11-19T10:53:40;53.40;;;24.50;;
57325;SDS011;43161;50.950;18.224;2023-11-19T10:56:11;50.30;;;22.80;;
57325;SDS011;43161;50.950;18.224;2023-11-19T10:58:37;49.80;;;21.90;;
57325;SDS011;43161;50.950;18.224;2023-11-19T11:01:03;55.40;;;22.80;;
57325;SDS011;43161;50.950;18.224;2023-11-19T11:03:38;47.80;;;22.70;;
57325;SDS011;43161;50.950;18.224;2023-11-19T11:06:05;48.20;;;23.20;;
57325;SDS011;43161;50.950;18.224;2023-11-19T11:08:31;48.30;;;22.40;;
57325;SDS011;43161;50.950;18.224;2023-11-19T11:10:57;49.30;;;23.70;;
57325;SDS011;43161;50.950;18.224;2023-11-19T11:13:24;45.70;;;20.00;;
57325;SDS011;43161;50.950;18.224;2023-11-19T11:15:51;47.40;;;22.60;;
57325;SDS011;43161;50.950;18.224;2023-11-19T11:18:17;54.80;;;24.40;;
57325;SDS011;43161;50.950;18.224;2023-11-19T11:20:46;49.90;;;23.70;;
57325;SDS011;43161;50.950;18.224;2023-11-19T11:29:16;50.40;;;29.30;;
57325;SDS011;43161;50.950;18.224;2023-11-19T11:37:33;49.00;;;26.30;;
57325;SDS011;43161;50.950;18.224;2023-11-19T11:40:03;44.50;;;24.80;;
57325;SDS011;43161;50.950;18.224;2023-11-19T11:42:36;40.90;;;20.70;;
57325;SDS011;43161;50.950;18.224;2023-11-19T11:50:27;67.40;;;30.70;;
57325;SDS011;43161;50.950;18.224;2023-11-19T11:57:54;38.30;;;21.90;;
57325;SDS011;43161;50.950;18.224;2023-11-19T12:02:56;39.60;;;23.70;;
57325;SDS011;43161;50.950;18.224;2023-11-19T12:05:26;38.90;;;19.40;;
57325;SDS011;43161;50.950;18.224;2023-11-19T12:07:56;43.70;;;21.30;;
57325;SDS011;43161;50.950;18.224;2023-11-19T12:10:28;32.40;;;16.80;;
57325;SDS011;43161;50.950;18.224;2023-11-19T12:12:59;33.50;;;17.60;;
57325;SDS011;43161;50.950;18.224;2023-11-19T12:15:26;33.80;;;18.50;;
57325;SDS011;43161;50.950;18.224;2023-11-19T12:17:53;34.90;;;17.80;;
57325;SDS011;43161;50.950;18.224;2023-11-19T12:20:21;32.30;;;16.10;;
57325;SDS011;43161;50.950;18.224;2023-11-19T12:22:47;34.40;;;15.90;;
57325;SDS011;43161;50.950;18.224;2023-11-19T12:25:14;34.50;;;18.60;;
57325;SDS011;43161;50.950;18.224;2023-11-19T12:27:46;37.30;;;19.00;;
57325;SDS011;43161;50.950;18.224;2023-11-19T12:30:16;36.70;;;19.70;;
57325;SDS011;43161;50.950;18.224;2023-11-19T12:32:52;33.90;;;18.10;;
57325;SDS011;43161;50.950;18.224;2023-11-19T12:35:21;32.80;;;14.70;;
57325;SDS011;43161;50.950;18.224;2023-11-19T12:37:48;33.60;;;16.40;;
57325;SDS011;43161;50.950;18.224;2023-11-19T12:40:15;30.60;;;17.20;;
57325;SDS011;43161;50.950;18.224;2023-11-19T12:42:46;36.50;;;18.90;;
57325;SDS011;43161;50.950;18.224;2023-11-19T12:45:16;32.40;;;15.90;;
57325;SDS011;43161;50.950;18.224;2023-11-19T12:47:43;31.50;;;14.90;;
57325;SDS011;43161;50.950;18.224;2023-11-19T12:50:09;40.90;;;20.10;;
57325;SDS011;43161;50.950;18.224;2023-11-19T12:52:36;32.80;;;17.70;;
57325;SDS011;43161;50.950;18.224;2023-11-19T12:57:51;37.80;;;19.60;;
57325;SDS011;43161;50.950;18.224;2023-11-19T13:00:20;31.70;;;17.40;;
57325;SDS011;43161;50.950;18.224;2023-11-19T13:02:47;32.00;;;17.90;;
57325;SDS011;43161;50.950;18.224;2023-11-19T13:05:34;33.00;;;15.30;;
57325;SDS011;43161;50.950;18.224;2023-11-19T13:08:02;34.40;;;16.80;;
57325;SDS011;43161;50.950;18.224;2023-11-19T13:10:28;30.60;;;18.50;;
57325;SDS011;43161;50.950;18.224;2023-11-19T13:15:37;30.90;;;17.70;;
57325;SDS011;43161;50.950;18.224;2023-11-19T13:18:02;31.30;;;16.00;;
57325;SDS011;43161;50.950;18.224;2023-11-19T13:20:29;31.20;;;19.10;;
57325;SDS011;43161;50.950;18.224;2023-11-19T13:22:55;34.50;;;18.00;;
57325;SDS011;43161;50.950;18.224;2023-11-19T13:25:22;34.80;;;16.40;;
57325;SDS011;43161;50.950;18.224;2023-11-19T13:27:48;36.60;;;21.20;;
57325;SDS011;43161;50.950;18.224;2023-11-19T13:30:14;40.50;;;25.70;;
57325;SDS011;43161;50.950;18.224;2023-11-19T13:32:41;26.30;;;13.40;;
57325;SDS011;43161;50.950;18.224;2023-11-19T13:35:09;29.20;;;14.90;;
57325;SDS011;43161;50.950;18.224;2023-11-19T13:37:34;33.10;;;16.60;;
57325;SDS011;43161;50.950;18.224;2023-11-19T13:40:00;36.10;;;18.50;;
57325;SDS011;43161;50.950;18.224;2023-11-19T13:42:26;34.60;;;16.70;;
57325;SDS011;43161;50.950;18.224;2023-11-19T13:44:52;35.30;;;19.90;;
57325;SDS011;43161;50.950;18.224;2023-11-19T13:47:18;34.30;;;19.00;;
57325;SDS011;43161;50.950;18.224;2023-11-19T13:49:46;32.70;;;18.10;;
57325;SDS011;43161;50.950;18.224;2023-11-19T13:52:12;32.30;;;16.80;;
57325;SDS011;43161;50.950;18.224;2023-11-19T13:54:38;33.40;;;16.10;;
57325;SDS011;43161;50.950;18.224;2023-11-19T13:57:04;38.90;;;20.00;;
57325;SDS011;43161;50.950;18.224;2023-11-19T13:59:32;39.70;;;19.00;;
57325;SDS011;43161;50.950;18.224;2023-11-19T14:01:59;84.10;;;32.10;;
57325;SDS011;43161;50.950;18.224;2023-11-19T14:04:24;34.10;;;17.00;;
57325;SDS011;43161;50.950;18.224;2023-11-19T14:06:50;38.10;;;20.30;;
57325;SDS011;43161;50.950;18.224;2023-11-19T14:09:16;41.40;;;24.40;;
57325;SDS011;43161;50.950;18.224;2023-11-19T14:11:42;39.60;;;22.40;;
57325;SDS011;43161;50.950;18.224;2023-11-19T14:14:09;40.70;;;23.40;;
57325;SDS011;43161;50.950;18.224;2023-11-19T14:16:34;46.30;;;27.40;;
57325;SDS011;43161;50.950;18.224;2023-11-19T14:19:00;54.70;;;33.70;;
57325;SDS011;43161;50.950;18.224;2023-11-19T14:21:26;49.20;;;29.10;;
57325;SDS011;43161;50.950;18.224;2023-11-19T14:23:52;46.10;;;23.40;;
57325;SDS011;43161;50.950;18.224;2023-11-19T14:26:18;32.30;;;16.00;;
57325;SDS011;43161;50.950;18.224;2023-11-19T14:28:45;29.20;;;15.50;;
57325;SDS011;43161;50.950;18.224;2023-11-19T14:31:10;32.30;;;14.70;;
57325;SDS011;43161;50.950;18.224;2023-11-19T14:33:36;32.10;;;15.00;;
57325;SDS011;43161;50.950;18.224;2023-11-19T14:36:03;30.60;;;14.30;;
57325;SDS011;43161;50.950;18.224;2023-11-19T14:38:30;31.30;;;16.10;;
57325;SDS011;43161;50.950;18.224;2023-11-19T14:40:58;31.90;;;17.30;;
57325;SDS011;43161;50.950;18.224;2023-11-19T14:43:25;30.80;;;14.90;;
57325;SDS011;43161;50.950;18.224;2023-11-19T14:45:51;28.50;;;13.70;;
57325;SDS011;43161;50.950;18.224;2023-11-19T14:48:17;31.10;;;14.30;;